sensor_id;sensor_type;location;lat;lon;timestamp;temperature;humidity
51853;DHT22;37894;53.172;6.598;2022-08-21T00:01:05;15.10;99.90
51853;DHT22;37894;53.172;6.598;2022-08-21T00:03:31;15.00;99.90
51853;DHT22;37894;53.172;6.598;2022-08-21T00:05:57;15.00;99.90
51853;DHT22;37894;53.172;6.598;2022-08-21T00:08:23;15.00;99.90
51853;DHT22;37894;53.172;6.598;2022-08-21T00:10:49;15.00;99.90
51853;DHT22;37894;53.172;6.598;2022-08-21T00:13:16;14.90;99.90
51853;DHT22;37894;53.172;6.598;2022-08-21T00:15:43;14.80;99.90
51853;DHT22;37894;53.172;6.598;2022-08-21T00:18:10;14.80;99.90
51853;DHT22;37894;53.172;6.598;2022-08-21T00:20:37;14.80;99.90
51853;DHT22;37894;53.172;6.598;2022-08-21T00:23:03;14.70;99.90
51853;DHT22;37894;53.172;6.598;2022-08-21T00:25:29;14.80;99.90
51853;DHT22;37894;53.172;6.598;2022-08-21T00:27:55;14.70;99.90
51853;DHT22;37894;53.172;6.598;2022-08-21T00:30:22;14.70;99.90
51853;DHT22;37894;53.172;6.598;2022-08-21T00:32:49;14.70;99.90
51853;DHT22;37894;53.172;6.598;2022-08-21T00:35:17;14.60;99.90
51853;DHT22;37894;53.172;6.598;2022-08-21T00:37:43;14.60;99.90
51853;DHT22;37894;53.172;6.598;2022-08-21T00:40:13;14.70;99.90
51853;DHT22;37894;53.172;6.598;2022-08-21T00:42:40;14.60;99.90
51853;DHT22;37894;53.172;6.598;2022-08-21T00:45:06;14.60;99.90
51853;DHT22;37894;53.172;6.598;2022-08-21T00:47:33;14.50;99.90
51853;DHT22;37894;53.172;6.598;2022-08-21T00:49:59;14.50;99.90
51853;DHT22;37894;53.172;6.598;2022-08-21T00:52:27;14.50;99.90
51853;DHT22;37894;53.172;6.598;2022-08-21T00:54:55;14.40;99.90
51853;DHT22;37894;53.172;6.598;2022-08-21T00:57:27;14.70;99.90
51853;DHT22;37894;53.172;6.598;2022-08-21T00:59:56;14.50;99.90
51853;DHT22;37894;53.172;6.598;2022-08-21T01:02:24;14.40;99.90
51853;DHT22;37894;53.172;6.598;2022-08-21T01:04:50;14.30;99.90
51853;DHT22;37894;53.172;6.598;2022-08-21T01:07:16;14.30;99.90
51853;DHT22;37894;53.172;6.598;2022-08-21T01:09:43;14.30;99.90
51853;DHT22;37894;53.172;6.598;2022-08-21T01:12:10;14.30;99.90
51853;DHT22;37894;53.172;6.598;2022-08-21T01:14:37;14.20;99.90
51853;DHT22;37894;53.172;6.598;2022-08-21T01:17:04;14.20;99.90
51853;DHT22;37894;53.172;6.598;2022-08-21T01:19:30;14.20;99.90
51853;DHT22;37894;53.172;6.598;2022-08-21T01:21:56;14.20;99.90
51853;DHT22;37894;53.172;6.598;2022-08-21T01:24:22;13.90;99.90
51853;DHT22;37894;53.172;6.598;2022-08-21T01:26:49;14.20;99.90
51853;DHT22;37894;53.172;6.598;2022-08-21T01:32:09;14.10;99.90
51853;DHT22;37894;53.172;6.598;2022-08-21T01:34:39;14.00;99.90
51853;DHT22;37894;53.172;6.598;2022-08-21T01:37:05;14.00;99.90
51853;DHT22;37894;53.172;6.598;2022-08-21T01:39:31;14.10;99.90
51853;DHT22;37894;53.172;6.598;2022-08-21T01:41:57;14.00;99.90
51853;DHT22;37894;53.172;6.598;2022-08-21T01:44:23;13.30;99.90
51853;DHT22;37894;53.172;6.598;2022-08-21T01:46:50;13.90;99.90
51853;DHT22;37894;53.172;6.598;2022-08-21T01:49:16;14.00;99.90
51853;DHT22;37894;53.172;6.598;2022-08-21T01:51:43;13.90;99.90
51853;DHT22;37894;53.172;6.598;2022-08-21T01:54:09;14.00;99.90
51853;DHT22;37894;53.172;6.598;2022-08-21T01:56:43;14.00;99.90
51853;DHT22;37894;53.172;6.598;2022-08-21T01:59:10;14.00;99.90
51853;DHT22;37894;53.172;6.598;2022-08-21T02:01:36;13.90;99.90
51853;DHT22;37894;53.172;6.598;2022-08-21T02:04:05;13.90;99.90
51853;DHT22;37894;53.172;6.598;2022-08-21T02:06:30;14.10;99.90
51853;DHT22;37894;53.172;6.598;2022-08-21T02:08:56;13.90;99.90
51853;DHT22;37894;53.172;6.598;2022-08-21T02:11:22;13.90;99.90
51853;DHT22;37894;53.172;6.598;2022-08-21T02:13:48;14.00;99.90
51853;DHT22;37894;53.172;6.598;2022-08-21T02:16:13;13.90;99.90
51853;DHT22;37894;53.172;6.598;2022-08-21T02:18:40;13.90;99.90
51853;DHT22;37894;53.172;6.598;2022-08-21T02:21:06;13.90;99.90
51853;DHT22;37894;53.172;6.598;2022-08-21T02:23:32;13.90;99.90
51853;DHT22;37894;53.172;6.598;2022-08-21T02:25:59;13.90;99.90
51853;DHT22;37894;53.172;6.598;2022-08-21T02:28:25;14.20;99.90
51853;DHT22;37894;53.172;6.598;2022-08-21T02:30:52;13.90;99.90
51853;DHT22;37894;53.172;6.598;2022-08-21T02:33:19;13.90;99.90
51853;DHT22;37894;53.172;6.598;2022-08-21T02:35:46;14.00;99.90
51853;DHT22;37894;53.172;6.598;2022-08-21T02:38:16;13.90;99.90
51853;DHT22;37894;53.172;6.598;2022-08-21T02:40:45;13.90;99.90
51853;DHT22;37894;53.172;6.598;2022-08-21T02:43:11;13.90;99.90
51853;DHT22;37894;53.172;6.598;2022-08-21T02:45:38;14.00;99.90
51853;DHT22;37894;53.172;6.598;2022-08-21T02:48:07;14.70;99.90
51853;DHT22;37894;53.172;6.598;2022-08-21T02:50:39;13.90;99.90
51853;DHT22;37894;53.172;6.598;2022-08-21T02:53:07;13.90;99.90
51853;DHT22;37894;53.172;6.598;2022-08-21T02:55:35;13.90;99.90
51853;DHT22;37894;53.172;6.598;2022-08-21T03:00:29;13.90;99.90
51853;DHT22;37894;53.172;6.598;2022-08-21T03:02:56;13.90;99.90
51853;DHT22;37894;53.172;6.598;2022-08-21T03:05:23;13.90;99.90
51853;DHT22;37894;53.172;6.598;2022-08-21T03:07:50;13.90;99.90
51853;DHT22;37894;53.172;6.598;2022-08-21T03:10:16;13.90;99.90
51853;DHT22;37894;53.172;6.598;2022-08-21T03:12:42;13.90;99.90
51853;DHT22;37894;53.172;6.598;2022-08-21T03:15:11;13.80;99.90
51853;DHT22;37894;53.172;6.598;2022-08-21T03:17:37;13.80;99.90
51853;DHT22;37894;53.172;6.598;2022-08-21T03:20:05;13.60;99.90
51853;DHT22;37894;53.172;6.598;2022-08-21T03:22:31;13.80;99.90
51853;DHT22;37894;53.172;6.598;2022-08-21T03:24:57;13.80;99.90
51853;DHT22;37894;53.172;6.598;2022-08-21T03:27:25;13.80;99.90
51853;DHT22;37894;53.172;6.598;2022-08-21T03:29:53;14.60;99.90
51853;DHT22;37894;53.172;6.598;2022-08-21T03:32:19;13.80;99.90
51853;DHT22;37894;53.172;6.598;2022-08-21T03:34:45;13.70;99.90
51853;DHT22;37894;53.172;6.598;2022-08-21T03:37:13;13.70;99.90
51853;DHT22;37894;53.172;6.598;2022-08-21T03:39:39;13.70;99.90
51853;DHT22;37894;53.172;6.598;2022-08-21T03:42:05;13.60;99.90
51853;DHT22;37894;53.172;6.598;2022-08-21T03:44:31;13.70;99.90
51853;DHT22;37894;53.172;6.598;2022-08-21T03:46:58;13.60;99.90
51853;DHT22;37894;53.172;6.598;2022-08-21T03:49:24;12.90;99.90
51853;DHT22;37894;53.172;6.598;2022-08-21T03:54:17;13.60;99.90
51853;DHT22;37894;53.172;6.598;2022-08-21T03:56:43;13.60;99.90
51853;DHT22;37894;53.172;6.598;2022-08-21T03:59:08;13.60;99.90
51853;DHT22;37894;53.172;6.598;2022-08-21T04:01:34;13.70;99.90
51853;DHT22;37894;53.172;6.598;2022-08-21T04:04:02;13.60;99.90
51853;DHT22;37894;53.172;6.598;2022-08-21T04:06:27;13.60;99.90
51853;DHT22;37894;53.172;6.598;2022-08-21T04:08:53;13.60;99.90
51853;DHT22;37894;53.172;6.598;2022-08-21T04:11:20;13.60;99.90
51853;DHT22;37894;53.172;6.598;2022-08-21T04:13:46;13.60;99.90
51853;DHT22;37894;53.172;6.598;2022-08-21T04:16:12;13.60;99.90
51853;DHT22;37894;53.172;6.598;2022-08-21T04:18:39;13.60;99.90
51853;DHT22;37894;53.172;6.598;2022-08-21T04:21:05;13.60;99.90
51853;DHT22;37894;53.172;6.598;2022-08-21T04:23:32;13.60;99.90
51853;DHT22;37894;53.172;6.598;2022-08-21T04:25:57;13.60;99.90
51853;DHT22;37894;53.172;6.598;2022-08-21T04:28:25;13.60;99.90
51853;DHT22;37894;53.172;6.598;2022-08-21T04:30:51;15.20;99.90
51853;DHT22;37894;53.172;6.598;2022-08-21T04:33:18;13.60;99.90
51853;DHT22;37894;53.172;6.598;2022-08-21T04:35:44;13.60;99.90
51853;DHT22;37894;53.172;6.598;2022-08-21T04:38:09;13.60;99.90
51853;DHT22;37894;53.172;6.598;2022-08-21T04:40:36;13.60;99.90
51853;DHT22;37894;53.172;6.598;2022-08-21T04:43:06;13.40;99.90
51853;DHT22;37894;53.172;6.598;2022-08-21T04:45:42;13.60;99.90
51853;DHT22;37894;53.172;6.598;2022-08-21T04:48:09;13.60;99.90
51853;DHT22;37894;53.172;6.598;2022-08-21T04:53:40;13.70;99.90
51853;DHT22;37894;53.172;6.598;2022-08-21T04:56:12;13.70;99.90
51853;DHT22;37894;53.172;6.598;2022-08-21T04:58:39;13.70;99.90
51853;DHT22;37894;53.172;6.598;2022-08-21T05:01:09;13.70;99.90
51853;DHT22;37894;53.172;6.598;2022-08-21T05:03:36;13.80;99.90
51853;DHT22;37894;53.172;6.598;2022-08-21T05:06:04;13.80;99.90
51853;DHT22;37894;53.172;6.598;2022-08-21T05:08:32;13.80;99.90
51853;DHT22;37894;53.172;6.598;2022-08-21T05:10:59;13.80;99.90
51853;DHT22;37894;53.172;6.598;2022-08-21T05:13:24;13.80;99.90
51853;DHT22;37894;53.172;6.598;2022-08-21T05:15:50;13.90;99.90
51853;DHT22;37894;53.172;6.598;2022-08-21T05:18:16;13.90;99.90
51853;DHT22;37894;53.172;6.598;2022-08-21T05:20:42;13.90;99.90
51853;DHT22;37894;53.172;6.598;2022-08-21T05:23:11;14.00;99.90
51853;DHT22;37894;53.172;6.598;2022-08-21T05:25:37;14.20;99.90
51853;DHT22;37894;53.172;6.598;2022-08-21T05:28:05;14.10;99.90
51853;DHT22;37894;53.172;6.598;2022-08-21T05:30:32;14.10;99.90
51853;DHT22;37894;53.172;6.598;2022-08-21T05:32:59;14.30;99.90
51853;DHT22;37894;53.172;6.598;2022-08-21T05:35:29;14.30;99.90
51853;DHT22;37894;53.172;6.598;2022-08-21T05:37:56;14.40;99.90
51853;DHT22;37894;53.172;6.598;2022-08-21T05:40:22;14.40;99.90
51853;DHT22;37894;53.172;6.598;2022-08-21T05:42:49;14.50;99.90
51853;DHT22;37894;53.172;6.598;2022-08-21T05:45:15;14.60;99.90
51853;DHT22;37894;53.172;6.598;2022-08-21T05:47:40;14.70;99.90
51853;DHT22;37894;53.172;6.598;2022-08-21T05:50:06;14.90;99.90
51853;DHT22;37894;53.172;6.598;2022-08-21T05:52:32;14.90;99.90
51853;DHT22;37894;53.172;6.598;2022-08-21T05:54:58;15.00;99.90
51853;DHT22;37894;53.172;6.598;2022-08-21T05:57:24;15.00;99.90
51853;DHT22;37894;53.172;6.598;2022-08-21T05:59:51;15.10;99.90
51853;DHT22;37894;53.172;6.598;2022-08-21T06:02:18;15.00;99.90
51853;DHT22;37894;53.172;6.598;2022-08-21T06:04:44;15.20;99.90
51853;DHT22;37894;53.172;6.598;2022-08-21T06:07:09;15.30;99.90
51853;DHT22;37894;53.172;6.598;2022-08-21T06:09:36;15.40;99.90
51853;DHT22;37894;53.172;6.598;2022-08-21T06:12:05;15.40;99.90
51853;DHT22;37894;53.172;6.598;2022-08-21T06:14:31;15.50;99.90
51853;DHT22;37894;53.172;6.598;2022-08-21T06:17:03;15.60;99.90
51853;DHT22;37894;53.172;6.598;2022-08-21T06:19:29;15.80;99.90
51853;DHT22;37894;53.172;6.598;2022-08-21T06:21:55;15.80;99.90
51853;DHT22;37894;53.172;6.598;2022-08-21T06:24:21;15.90;99.90
51853;DHT22;37894;53.172;6.598;2022-08-21T06:26:46;16.00;99.90
51853;DHT22;37894;53.172;6.598;2022-08-21T06:29:13;15.80;99.90
51853;DHT22;37894;53.172;6.598;2022-08-21T06:31:42;15.60;99.90
51853;DHT22;37894;53.172;6.598;2022-08-21T06:34:08;16.30;99.90
51853;DHT22;37894;53.172;6.598;2022-08-21T06:36:34;16.40;99.90
51853;DHT22;37894;53.172;6.598;2022-08-21T06:39:00;16.70;99.90
51853;DHT22;37894;53.172;6.598;2022-08-21T06:41:25;16.60;99.90
51853;DHT22;37894;53.172;6.598;2022-08-21T06:46:17;16.80;99.90
51853;DHT22;37894;53.172;6.598;2022-08-21T06:48:43;16.80;99.90
51853;DHT22;37894;53.172;6.598;2022-08-21T06:51:09;16.90;99.90
51853;DHT22;37894;53.172;6.598;2022-08-21T06:53:34;17.00;99.90
51853;DHT22;37894;53.172;6.598;2022-08-21T06:56:00;17.10;99.90
51853;DHT22;37894;53.172;6.598;2022-08-21T06:58:26;17.20;99.90
51853;DHT22;37894;53.172;6.598;2022-08-21T07:00:52;17.30;99.90
51853;DHT22;37894;53.172;6.598;2022-08-21T07:03:28;17.40;99.90
51853;DHT22;37894;53.172;6.598;2022-08-21T07:05:54;17.50;99.90
51853;DHT22;37894;53.172;6.598;2022-08-21T07:08:21;17.60;99.90
51853;DHT22;37894;53.172;6.598;2022-08-21T07:10:47;17.70;99.90
51853;DHT22;37894;53.172;6.598;2022-08-21T07:13:14;17.70;99.90
51853;DHT22;37894;53.172;6.598;2022-08-21T07:15:40;17.90;99.90
51853;DHT22;37894;53.172;6.598;2022-08-21T07:18:06;18.10;99.90
51853;DHT22;37894;53.172;6.598;2022-08-21T07:20:33;18.00;99.90
51853;DHT22;37894;53.172;6.598;2022-08-21T07:23:01;18.10;99.90
51853;DHT22;37894;53.172;6.598;2022-08-21T07:25:28;18.20;99.90
51853;DHT22;37894;53.172;6.598;2022-08-21T07:27:55;18.30;99.90
51853;DHT22;37894;53.172;6.598;2022-08-21T07:30:21;18.30;99.90
51853;DHT22;37894;53.172;6.598;2022-08-21T07:32:47;18.40;99.90
51853;DHT22;37894;53.172;6.598;2022-08-21T07:35:15;18.50;99.90
51853;DHT22;37894;53.172;6.598;2022-08-21T07:37:41;18.60;99.90
51853;DHT22;37894;53.172;6.598;2022-08-21T07:40:07;18.70;99.90
51853;DHT22;37894;53.172;6.598;2022-08-21T07:42:33;18.80;99.90
51853;DHT22;37894;53.172;6.598;2022-08-21T07:44:59;18.90;99.90
51853;DHT22;37894;53.172;6.598;2022-08-21T07:47:25;19.00;99.90
51853;DHT22;37894;53.172;6.598;2022-08-21T07:49:50;19.10;99.90
51853;DHT22;37894;53.172;6.598;2022-08-21T07:52:17;19.20;99.90
51853;DHT22;37894;53.172;6.598;2022-08-21T07:54:42;19.30;99.90
51853;DHT22;37894;53.172;6.598;2022-08-21T07:57:08;19.40;99.90
51853;DHT22;37894;53.172;6.598;2022-08-21T07:59:34;19.50;99.90
51853;DHT22;37894;53.172;6.598;2022-08-21T08:02:00;19.50;99.90
51853;DHT22;37894;53.172;6.598;2022-08-21T08:04:25;19.60;99.90
51853;DHT22;37894;53.172;6.598;2022-08-21T08:06:51;19.70;99.90
51853;DHT22;37894;53.172;6.598;2022-08-21T08:09:17;19.80;99.90
51853;DHT22;37894;53.172;6.598;2022-08-21T08:11:42;19.90;99.90
51853;DHT22;37894;53.172;6.598;2022-08-21T08:14:09;20.00;99.90
51853;DHT22;37894;53.172;6.598;2022-08-21T08:16:35;20.10;99.90
51853;DHT22;37894;53.172;6.598;2022-08-21T08:19:01;20.20;99.90
51853;DHT22;37894;53.172;6.598;2022-08-21T08:21:27;20.20;99.90
51853;DHT22;37894;53.172;6.598;2022-08-21T08:23:53;20.30;99.90
51853;DHT22;37894;53.172;6.598;2022-08-21T08:26:19;20.40;99.90
51853;DHT22;37894;53.172;6.598;2022-08-21T08:28:45;20.50;99.90
51853;DHT22;37894;53.172;6.598;2022-08-21T08:31:12;20.60;99.90
51853;DHT22;37894;53.172;6.598;2022-08-21T08:33:38;20.70;99.90
51853;DHT22;37894;53.172;6.598;2022-08-21T08:36:04;20.80;99.90
51853;DHT22;37894;53.172;6.598;2022-08-21T08:38:29;20.80;99.90
51853;DHT22;37894;53.172;6.598;2022-08-21T08:43:49;21.00;99.90
51853;DHT22;37894;53.172;6.598;2022-08-21T08:46:19;21.10;99.90
51853;DHT22;37894;53.172;6.598;2022-08-21T08:48:51;21.20;99.90
51853;DHT22;37894;53.172;6.598;2022-08-21T08:51:25;21.30;99.90
51853;DHT22;37894;53.172;6.598;2022-08-21T08:53:59;21.40;99.90
51853;DHT22;37894;53.172;6.598;2022-08-21T08:56:31;21.50;99.90
51853;DHT22;37894;53.172;6.598;2022-08-21T08:59:23;21.60;99.90
51853;DHT22;37894;53.172;6.598;2022-08-21T09:01:47;21.70;99.90
51853;DHT22;37894;53.172;6.598;2022-08-21T09:04:18;21.80;99.90
51853;DHT22;37894;53.172;6.598;2022-08-21T09:09:33;21.90;99.90
51853;DHT22;37894;53.172;6.598;2022-08-21T09:12:09;22.00;99.90
51853;DHT22;37894;53.172;6.598;2022-08-21T09:15:02;22.00;99.90
51853;DHT22;37894;53.172;6.598;2022-08-21T09:18:07;21.90;99.90
51853;DHT22;37894;53.172;6.598;2022-08-21T09:21:02;22.10;99.90
51853;DHT22;37894;53.172;6.598;2022-08-21T09:26:14;22.50;99.90
51853;DHT22;37894;53.172;6.598;2022-08-21T09:28:41;22.60;99.90
51853;DHT22;37894;53.172;6.598;2022-08-21T09:31:11;22.60;99.90
51853;DHT22;37894;53.172;6.598;2022-08-21T09:33:39;22.70;99.90
51853;DHT22;37894;53.172;6.598;2022-08-21T09:36:05;22.70;99.90
51853;DHT22;37894;53.172;6.598;2022-08-21T09:38:33;22.80;99.90
51853;DHT22;37894;53.172;6.598;2022-08-21T09:41:10;22.90;99.90
51853;DHT22;37894;53.172;6.598;2022-08-21T09:43:37;23.10;99.90
51853;DHT22;37894;53.172;6.598;2022-08-21T09:46:07;23.10;99.90
51853;DHT22;37894;53.172;6.598;2022-08-21T09:48:47;23.20;99.90
51853;DHT22;37894;53.172;6.598;2022-08-21T09:51:20;23.30;99.90
51853;DHT22;37894;53.172;6.598;2022-08-21T09:54:14;23.40;99.90
51853;DHT22;37894;53.172;6.598;2022-08-21T09:59:45;23.60;99.90
51853;DHT22;37894;53.172;6.598;2022-08-21T10:02:27;23.60;99.90
51853;DHT22;37894;53.172;6.598;2022-08-21T10:04:57;23.60;99.90
51853;DHT22;37894;53.172;6.598;2022-08-21T10:07:26;23.50;99.90
51853;DHT22;37894;53.172;6.598;2022-08-21T10:10:00;23.50;99.90
51853;DHT22;37894;53.172;6.598;2022-08-21T10:15:22;23.60;99.90
51853;DHT22;37894;53.172;6.598;2022-08-21T10:18:13;23.60;99.90
51853;DHT22;37894;53.172;6.598;2022-08-21T10:21:10;23.80;99.90
51853;DHT22;37894;53.172;6.598;2022-08-21T10:32:08;24.50;99.90
51853;DHT22;37894;53.172;6.598;2022-08-21T10:34:50;23.60;99.90
51853;DHT22;37894;53.172;6.598;2022-08-21T10:40:15;24.30;99.90
51853;DHT22;37894;53.172;6.598;2022-08-21T10:43:01;24.10;99.90
51853;DHT22;37894;53.172;6.598;2022-08-21T10:48:07;23.80;99.90
51853;DHT22;37894;53.172;6.598;2022-08-21T10:56:22;23.30;99.90
51853;DHT22;37894;53.172;6.598;2022-08-21T11:04:25;22.80;99.90
51853;DHT22;37894;53.172;6.598;2022-08-21T11:07:02;22.70;99.90
51853;DHT22;37894;53.172;6.598;2022-08-21T11:09:30;22.70;99.90
51853;DHT22;37894;53.172;6.598;2022-08-21T11:12:22;22.70;99.90
51853;DHT22;37894;53.172;6.598;2022-08-21T11:15:09;22.60;99.90
51853;DHT22;37894;53.172;6.598;2022-08-21T11:18:23;22.50;99.90
51853;DHT22;37894;53.172;6.598;2022-08-21T11:23:43;22.30;99.90
51853;DHT22;37894;53.172;6.598;2022-08-21T11:26:39;22.20;99.90
51853;DHT22;37894;53.172;6.598;2022-08-21T11:29:13;22.10;99.90
51853;DHT22;37894;53.172;6.598;2022-08-21T11:37:07;21.80;99.90
51853;DHT22;37894;53.172;6.598;2022-08-21T11:45:54;21.60;99.90
51853;DHT22;37894;53.172;6.598;2022-08-21T11:50:59;21.50;99.90
51853;DHT22;37894;53.172;6.598;2022-08-21T11:53:32;21.50;99.90
51853;DHT22;37894;53.172;6.598;2022-08-21T11:58:51;22.10;99.90
51853;DHT22;37894;53.172;6.598;2022-08-21T12:01:25;22.50;99.90
51853;DHT22;37894;53.172;6.598;2022-08-21T12:04:01;22.60;99.90
51853;DHT22;37894;53.172;6.598;2022-08-21T12:06:37;22.70;99.90
51853;DHT22;37894;53.172;6.598;2022-08-21T12:09:09;22.70;99.90
51853;DHT22;37894;53.172;6.598;2022-08-21T12:14:47;22.70;99.90
51853;DHT22;37894;53.172;6.598;2022-08-21T12:17:22;22.80;99.90
51853;DHT22;37894;53.172;6.598;2022-08-21T12:20:40;22.90;99.90
51853;DHT22;37894;53.172;6.598;2022-08-21T12:23:27;23.10;99.90
51853;DHT22;37894;53.172;6.598;2022-08-21T12:26:09;23.20;99.90
51853;DHT22;37894;53.172;6.598;2022-08-21T12:28:36;23.20;99.90
51853;DHT22;37894;53.172;6.598;2022-08-21T12:31:02;23.20;99.90
51853;DHT22;37894;53.172;6.598;2022-08-21T12:33:39;23.20;99.90
51853;DHT22;37894;53.172;6.598;2022-08-21T12:36:15;23.10;99.90
51853;DHT22;37894;53.172;6.598;2022-08-21T12:38:51;23.10;99.90
51853;DHT22;37894;53.172;6.598;2022-08-21T12:41:20;23.30;99.90
51853;DHT22;37894;53.172;6.598;2022-08-21T12:43:56;23.40;99.90
51853;DHT22;37894;53.172;6.598;2022-08-21T12:46:34;23.40;99.90
51853;DHT22;37894;53.172;6.598;2022-08-21T12:49:07;23.30;99.90
51853;DHT22;37894;53.172;6.598;2022-08-21T12:54:40;23.10;99.90
51853;DHT22;37894;53.172;6.598;2022-08-21T12:57:07;23.00;99.90
51853;DHT22;37894;53.172;6.598;2022-08-21T12:59:38;23.40;99.90
51853;DHT22;37894;53.172;6.598;2022-08-21T13:02:19;23.80;99.90
51853;DHT22;37894;53.172;6.598;2022-08-21T13:04:46;24.10;99.90
51853;DHT22;37894;53.172;6.598;2022-08-21T13:07:16;24.30;99.90
51853;DHT22;37894;53.172;6.598;2022-08-21T13:09:53;24.30;99.90
51853;DHT22;37894;53.172;6.598;2022-08-21T13:12:21;24.30;99.90
51853;DHT22;37894;53.172;6.598;2022-08-21T13:14:49;24.20;99.90
51853;DHT22;37894;53.172;6.598;2022-08-21T13:17:20;24.10;99.90
51853;DHT22;37894;53.172;6.598;2022-08-21T13:19:59;24.10;99.90
51853;DHT22;37894;53.172;6.598;2022-08-21T13:22:27;24.10;99.90
51853;DHT22;37894;53.172;6.598;2022-08-21T13:24:53;24.20;99.90
51853;DHT22;37894;53.172;6.598;2022-08-21T13:27:24;24.20;99.90
51853;DHT22;37894;53.172;6.598;2022-08-21T13:30:05;24.20;99.90
51853;DHT22;37894;53.172;6.598;2022-08-21T13:32:32;24.10;99.90
51853;DHT22;37894;53.172;6.598;2022-08-21T13:34:59;24.00;99.90
51853;DHT22;37894;53.172;6.598;2022-08-21T13:37:32;23.90;99.90
51853;DHT22;37894;53.172;6.598;2022-08-21T13:39:58;23.80;99.90
51853;DHT22;37894;53.172;6.598;2022-08-21T13:42:24;23.70;99.90
51853;DHT22;37894;53.172;6.598;2022-08-21T13:44:52;23.60;99.90
51853;DHT22;37894;53.172;6.598;2022-08-21T13:47:19;23.60;99.90
51853;DHT22;37894;53.172;6.598;2022-08-21T13:49:47;23.60;99.90
51853;DHT22;37894;53.172;6.598;2022-08-21T13:52:22;23.60;99.90
51853;DHT22;37894;53.172;6.598;2022-08-21T13:54:58;23.60;99.90
51853;DHT22;37894;53.172;6.598;2022-08-21T13:57:30;23.60;99.90
51853;DHT22;37894;53.172;6.598;2022-08-21T14:00:13;23.60;99.90
51853;DHT22;37894;53.172;6.598;2022-08-21T14:02:43;23.70;99.90
51853;DHT22;37894;53.172;6.598;2022-08-21T14:05:31;23.70;99.90
51853;DHT22;37894;53.172;6.598;2022-08-21T14:08:10;23.80;99.90
51853;DHT22;37894;53.172;6.598;2022-08-21T14:10:44;23.80;99.90
51853;DHT22;37894;53.172;6.598;2022-08-21T14:15:59;23.80;99.90
51853;DHT22;37894;53.172;6.598;2022-08-21T14:18:25;23.70;99.90
51853;DHT22;37894;53.172;6.598;2022-08-21T14:20:57;23.70;99.90
51853;DHT22;37894;53.172;6.598;2022-08-21T14:23:28;23.70;99.90
51853;DHT22;37894;53.172;6.598;2022-08-21T14:25:59;23.80;99.90
51853;DHT22;37894;53.172;6.598;2022-08-21T14:28:31;23.90;99.90
51853;DHT22;37894;53.172;6.598;2022-08-21T14:30:59;24.00;99.90
51853;DHT22;37894;53.172;6.598;2022-08-21T14:33:35;24.10;99.90
51853;DHT22;37894;53.172;6.598;2022-08-21T14:36:01;24.20;99.90
51853;DHT22;37894;53.172;6.598;2022-08-21T14:38:28;24.30;99.90
51853;DHT22;37894;53.172;6.598;2022-08-21T14:41:00;24.30;99.90
51853;DHT22;37894;53.172;6.598;2022-08-21T14:43:28;24.30;99.90
51853;DHT22;37894;53.172;6.598;2022-08-21T14:45:58;24.30;99.90
51853;DHT22;37894;53.172;6.598;2022-08-21T14:48:29;24.30;99.90
51853;DHT22;37894;53.172;6.598;2022-08-21T14:58:59;24.10;99.90
51853;DHT22;37894;53.172;6.598;2022-08-21T15:01:26;24.10;99.90
51853;DHT22;37894;53.172;6.598;2022-08-21T15:03:51;24.10;99.90
51853;DHT22;37894;53.172;6.598;2022-08-21T15:06:18;24.10;99.90
51853;DHT22;37894;53.172;6.598;2022-08-21T15:08:43;24.20;99.90
51853;DHT22;37894;53.172;6.598;2022-08-21T15:11:14;24.10;99.90
51853;DHT22;37894;53.172;6.598;2022-08-21T15:13:41;24.10;99.90
51853;DHT22;37894;53.172;6.598;2022-08-21T15:16:09;26.00;99.90
51853;DHT22;37894;53.172;6.598;2022-08-21T15:18:36;24.00;99.90
51853;DHT22;37894;53.172;6.598;2022-08-21T15:21:01;23.90;99.90
51853;DHT22;37894;53.172;6.598;2022-08-21T15:23:27;23.80;99.90
51853;DHT22;37894;53.172;6.598;2022-08-21T15:25:53;23.80;99.90
51853;DHT22;37894;53.172;6.598;2022-08-21T15:28:20;23.70;99.90
51853;DHT22;37894;53.172;6.598;2022-08-21T15:30:47;23.60;99.90
51853;DHT22;37894;53.172;6.598;2022-08-21T15:33:12;23.60;99.90
51853;DHT22;37894;53.172;6.598;2022-08-21T15:35:39;23.60;99.90
51853;DHT22;37894;53.172;6.598;2022-08-21T15:38:05;23.60;99.90
51853;DHT22;37894;53.172;6.598;2022-08-21T15:40:31;23.60;99.90
51853;DHT22;37894;53.172;6.598;2022-08-21T15:43:01;23.70;99.90
51853;DHT22;37894;53.172;6.598;2022-08-21T15:45:40;23.80;99.90
51853;DHT22;37894;53.172;6.598;2022-08-21T15:48:06;23.80;99.90
51853;DHT22;37894;53.172;6.598;2022-08-21T15:50:31;23.80;99.90
51853;DHT22;37894;53.172;6.598;2022-08-21T15:52:57;23.70;99.90
51853;DHT22;37894;53.172;6.598;2022-08-21T15:55:23;23.70;99.90
51853;DHT22;37894;53.172;6.598;2022-08-21T15:57:51;23.70;99.90
51853;DHT22;37894;53.172;6.598;2022-08-21T16:00:23;23.60;99.90
51853;DHT22;37894;53.172;6.598;2022-08-21T16:02:50;23.60;99.90
51853;DHT22;37894;53.172;6.598;2022-08-21T16:05:18;23.50;99.90
51853;DHT22;37894;53.172;6.598;2022-08-21T16:07:45;23.40;99.90
51853;DHT22;37894;53.172;6.598;2022-08-21T16:10:13;23.40;99.90
51853;DHT22;37894;53.172;6.598;2022-08-21T16:12:44;23.40;99.90
51853;DHT22;37894;53.172;6.598;2022-08-21T16:15:12;23.40;99.90
51853;DHT22;37894;53.172;6.598;2022-08-21T16:17:40;23.40;99.90
51853;DHT22;37894;53.172;6.598;2022-08-21T16:20:11;23.40;99.90
51853;DHT22;37894;53.172;6.598;2022-08-21T16:22:37;23.30;99.90
51853;DHT22;37894;53.172;6.598;2022-08-21T16:25:04;23.30;99.90
51853;DHT22;37894;53.172;6.598;2022-08-21T16:27:31;23.30;99.90
51853;DHT22;37894;53.172;6.598;2022-08-21T16:29:57;23.20;99.90
51853;DHT22;37894;53.172;6.598;2022-08-21T16:32:23;23.20;99.90
51853;DHT22;37894;53.172;6.598;2022-08-21T16:34:49;23.10;99.90
51853;DHT22;37894;53.172;6.598;2022-08-21T16:37:16;23.10;99.90
51853;DHT22;37894;53.172;6.598;2022-08-21T16:39:42;23.10;99.90
51853;DHT22;37894;53.172;6.598;2022-08-21T16:42:11;23.10;99.90
51853;DHT22;37894;53.172;6.598;2022-08-21T16:44:38;23.10;99.90
51853;DHT22;37894;53.172;6.598;2022-08-21T16:47:04;23.00;99.90
51853;DHT22;37894;53.172;6.598;2022-08-21T16:49:35;22.90;99.90
51853;DHT22;37894;53.172;6.598;2022-08-21T16:52:05;22.80;99.90
51853;DHT22;37894;53.172;6.598;2022-08-21T16:54:32;22.70;99.90
51853;DHT22;37894;53.172;6.598;2022-08-21T16:57:03;22.60;99.90
51853;DHT22;37894;53.172;6.598;2022-08-21T16:59:35;22.50;99.90
51853;DHT22;37894;53.172;6.598;2022-08-21T17:02:01;22.40;99.90
51853;DHT22;37894;53.172;6.598;2022-08-21T17:04:27;22.30;99.90
51853;DHT22;37894;53.172;6.598;2022-08-21T17:06:54;22.20;99.90
51853;DHT22;37894;53.172;6.598;2022-08-21T17:09:20;22.20;99.90
51853;DHT22;37894;53.172;6.598;2022-08-21T17:11:47;22.10;99.90